Saint Louis, Missouri
Traffic Map
Current Weather Conditions
Saint Louis, Missouri
Broken Clouds
Broken Clouds
20°
Feels Like: 20°
Wind Chill: 20° Ceiling: 5000
Heat Index: 20° Visibility: 10mi
Dew Point: 18° Wind: 5mph
Humidity: 90% Direction: 70° (ENE)
Pressure: 29.88in Gusts: 0mph
Raw Report DataKCPS 021053Z AUTO 07004KT 10SM SCT036 BKN050 BKN065 20/18 A2988 RMK AO2 RAB14E23 SLP116 P0000 T02000183 TSNO
Traffic Incident Summary
Active as of:
Severity:
Category:
InformationThere was an issue retrieving the traffic information for this location. Please try a different location or try again shortly.
Advertisements
Track Severe Weather on mobile